sensor_id;sensor_type;location;lat;lon;timestamp;P1;durP1;ratioP1;P2;durP2;ratioP2
40588;SDS011;26297;49.450;6.640;2023-05-27T00:30:08;4.18;;;1.52;;
40588;SDS011;26297;49.450;6.640;2023-05-27T00:33:12;7.40;;;2.30;;
40588;SDS011;26297;49.450;6.640;2023-05-27T00:36:19;4.22;;;2.10;;
40588;SDS011;26297;49.450;6.640;2023-05-27T00:39:23;6.80;;;2.10;;
40588;SDS011;26297;49.450;6.640;2023-05-27T00:42:27;6.60;;;2.05;;
40588;SDS011;26297;49.450;6.640;2023-05-27T00:45:30;5.50;;;1.92;;
40588;SDS011;26297;49.450;6.640;2023-05-27T00:48:33;4.10;;;1.98;;
40588;SDS011;26297;49.450;6.640;2023-05-27T00:51:37;4.95;;;2.13;;
40588;SDS011;26297;49.450;6.640;2023-05-27T00:54:40;4.75;;;2.10;;
40588;SDS011;26297;49.450;6.640;2023-05-27T00:57:44;7.38;;;1.75;;
40588;SDS011;26297;49.450;6.640;2023-05-27T01:00:48;6.25;;;2.08;;
40588;SDS011;26297;49.450;6.640;2023-05-27T01:03:51;7.03;;;2.20;;
40588;SDS011;26297;49.450;6.640;2023-05-27T01:07:10;9.30;;;2.10;;
40588;SDS011;26297;49.450;6.640;2023-05-27T01:13:41;4.97;;;1.77;;
40588;SDS011;26297;49.450;6.640;2023-05-27T01:16:48;4.25;;;1.55;;
40588;SDS011;26297;49.450;6.640;2023-05-27T01:19:59;5.93;;;2.08;;
40588;SDS011;26297;49.450;6.640;2023-05-27T01:23:03;2.97;;;1.83;;
40588;SDS011;26297;49.450;6.640;2023-05-27T01:26:07;9.55;;;1.90;;
40588;SDS011;26297;49.450;6.640;2023-05-27T01:29:10;5.70;;;1.98;;
40588;SDS011;26297;49.450;6.640;2023-05-27T01:32:16;5.75;;;2.50;;
40588;SDS011;26297;49.450;6.640;2023-05-27T01:35:23;3.17;;;1.70;;
40588;SDS011;26297;49.450;6.640;2023-05-27T01:38:47;3.70;;;1.90;;
40588;SDS011;26297;49.450;6.640;2023-05-27T01:41:52;4.30;;;2.00;;
40588;SDS011;26297;49.450;6.640;2023-05-27T01:44:56;5.00;;;1.90;;
40588;SDS011;26297;49.450;6.640;2023-05-27T01:48:00;2.85;;;1.48;;
40588;SDS011;26297;49.450;6.640;2023-05-27T01:51:04;5.90;;;1.73;;
40588;SDS011;26297;49.450;6.640;2023-05-27T01:54:08;5.05;;;1.95;;
40588;SDS011;26297;49.450;6.640;2023-05-27T01:57:11;7.30;;;2.45;;
40588;SDS011;26297;49.450;6.640;2023-05-27T02:00:15;4.47;;;1.95;;
40588;SDS011;26297;49.450;6.640;2023-05-27T02:03:19;6.95;;;2.45;;
40588;SDS011;26297;49.450;6.640;2023-05-27T02:06:22;3.33;;;1.60;;
40588;SDS011;26297;49.450;6.640;2023-05-27T02:09:25;4.97;;;1.73;;
40588;SDS011;26297;49.450;6.640;2023-05-27T02:12:29;4.07;;;1.85;;
40588;SDS011;26297;49.450;6.640;2023-05-27T02:15:36;4.25;;;1.63;;
40588;SDS011;26297;49.450;6.640;2023-05-27T02:18:43;3.43;;;1.53;;
40588;SDS011;26297;49.450;6.640;2023-05-27T02:21:50;3.83;;;1.52;;
40588;SDS011;26297;49.450;6.640;2023-05-27T02:24:54;5.03;;;1.92;;
40588;SDS011;26297;49.450;6.640;2023-05-27T02:33:45;4.53;;;1.60;;
40588;SDS011;26297;49.450;6.640;2023-05-27T02:37:09;6.35;;;2.00;;
40588;SDS011;26297;49.450;6.640;2023-05-27T02:40:27;3.05;;;1.67;;
40588;SDS011;26297;49.450;6.640;2023-05-27T02:43:40;3.22;;;1.42;;
40588;SDS011;26297;49.450;6.640;2023-05-27T02:46:44;2.63;;;1.63;;
40588;SDS011;26297;49.450;6.640;2023-05-27T02:49:48;5.53;;;1.95;;
40588;SDS011;26297;49.450;6.640;2023-05-27T02:52:54;6.05;;;2.03;;
40588;SDS011;26297;49.450;6.640;2023-05-27T02:58:48;3.40;;;1.70;;
40588;SDS011;26297;49.450;6.640;2023-05-27T03:01:58;4.72;;;1.80;;
40588;SDS011;26297;49.450;6.640;2023-05-27T03:05:02;6.63;;;1.67;;
40588;SDS011;26297;49.450;6.640;2023-05-27T03:08:06;4.60;;;1.98;;
40588;SDS011;26297;49.450;6.640;2023-05-27T03:11:10;4.13;;;1.70;;
40588;SDS011;26297;49.450;6.640;2023-05-27T03:14:15;4.50;;;1.85;;
40588;SDS011;26297;49.450;6.640;2023-05-27T03:17:37;4.43;;;1.88;;
40588;SDS011;26297;49.450;6.640;2023-05-27T03:20:42;5.70;;;1.70;;
40588;SDS011;26297;49.450;6.640;2023-05-27T03:23:49;4.95;;;1.65;;
40588;SDS011;26297;49.450;6.640;2023-05-27T03:26:56;6.15;;;1.90;;
40588;SDS011;26297;49.450;6.640;2023-05-27T03:29:59;4.78;;;1.88;;
40588;SDS011;26297;49.450;6.640;2023-05-27T03:33:06;4.88;;;1.90;;
40588;SDS011;26297;49.450;6.640;2023-05-27T03:36:15;5.75;;;1.85;;
40588;SDS011;26297;49.450;6.640;2023-05-27T03:39:31;8.18;;;1.80;;
40588;SDS011;26297;49.450;6.640;2023-05-27T03:42:58;5.35;;;1.77;;
40588;SDS011;26297;49.450;6.640;2023-05-27T03:46:05;4.47;;;1.55;;
40588;SDS011;26297;49.450;6.640;2023-05-27T03:49:27;5.32;;;2.20;;
40588;SDS011;26297;49.450;6.640;2023-05-27T03:58:26;5.63;;;1.77;;
40588;SDS011;26297;49.450;6.640;2023-05-27T04:01:31;6.45;;;1.77;;
40588;SDS011;26297;49.450;6.640;2023-05-27T04:04:35;4.78;;;1.38;;
40588;SDS011;26297;49.450;6.640;2023-05-27T04:07:39;3.60;;;2.00;;
40588;SDS011;26297;49.450;6.640;2023-05-27T04:10:44;4.60;;;1.55;;
40588;SDS011;26297;49.450;6.640;2023-05-27T04:13:49;5.45;;;1.30;;
40588;SDS011;26297;49.450;6.640;2023-05-27T04:16:56;3.97;;;1.67;;
40588;SDS011;26297;49.450;6.640;2023-05-27T04:22:48;5.85;;;1.42;;
40588;SDS011;26297;49.450;6.640;2023-05-27T04:25:53;3.85;;;1.88;;
40588;SDS011;26297;49.450;6.640;2023-05-27T04:28:57;3.70;;;1.77;;
40588;SDS011;26297;49.450;6.640;2023-05-27T04:32:06;5.78;;;2.10;;
40588;SDS011;26297;49.450;6.640;2023-05-27T04:35:10;4.03;;;1.70;;
40588;SDS011;26297;49.450;6.640;2023-05-27T04:38:20;4.63;;;1.90;;
40588;SDS011;26297;49.450;6.640;2023-05-27T04:41:28;2.85;;;1.77;;
40588;SDS011;26297;49.450;6.640;2023-05-27T04:44:32;3.55;;;1.60;;
40588;SDS011;26297;49.450;6.640;2023-05-27T04:47:39;6.68;;;2.00;;
40588;SDS011;26297;49.450;6.640;2023-05-27T04:50:45;7.65;;;1.80;;
40588;SDS011;26297;49.450;6.640;2023-05-27T04:56:41;7.05;;;1.75;;
40588;SDS011;26297;49.450;6.640;2023-05-27T04:59:47;7.28;;;1.77;;
40588;SDS011;26297;49.450;6.640;2023-05-27T05:03:20;6.47;;;2.35;;
40588;SDS011;26297;49.450;6.640;2023-05-27T05:06:40;4.47;;;1.53;;
40588;SDS011;26297;49.450;6.640;2023-05-27T05:09:45;5.15;;;1.30;;
40588;SDS011;26297;49.450;6.640;2023-05-27T05:12:48;4.32;;;2.30;;
40588;SDS011;26297;49.450;6.640;2023-05-27T05:15:52;8.73;;;2.38;;
40588;SDS011;26297;49.450;6.640;2023-05-27T05:18:55;3.67;;;1.95;;
40588;SDS011;26297;49.450;6.640;2023-05-27T05:22:03;5.68;;;1.45;;
40588;SDS011;26297;49.450;6.640;2023-05-27T05:27:59;4.13;;;1.40;;
40588;SDS011;26297;49.450;6.640;2023-05-27T05:31:02;4.78;;;1.60;;
40588;SDS011;26297;49.450;6.640;2023-05-27T05:36:56;4.15;;;1.80;;
40588;SDS011;26297;49.450;6.640;2023-05-27T05:39:59;5.10;;;1.50;;
40588;SDS011;26297;49.450;6.640;2023-05-27T05:43:05;5.13;;;1.63;;
40588;SDS011;26297;49.450;6.640;2023-05-27T05:46:08;8.75;;;1.75;;
40588;SDS011;26297;49.450;6.640;2023-05-27T05:49:11;5.38;;;1.83;;
40588;SDS011;26297;49.450;6.640;2023-05-27T05:52:14;2.47;;;1.30;;
40588;SDS011;26297;49.450;6.640;2023-05-27T05:55:17;5.75;;;1.80;;
40588;SDS011;26297;49.450;6.640;2023-05-27T05:58:21;12.73;;;2.90;;
40588;SDS011;26297;49.450;6.640;2023-05-27T06:01:24;3.30;;;1.33;;
40588;SDS011;26297;49.450;6.640;2023-05-27T06:04:32;6.40;;;1.90;;
40588;SDS011;26297;49.450;6.640;2023-05-27T06:07:35;3.47;;;1.50;;
40588;SDS011;26297;49.450;6.640;2023-05-27T06:10:38;5.82;;;1.60;;
40588;SDS011;26297;49.450;6.640;2023-05-27T06:13:42;6.60;;;2.10;;
40588;SDS011;26297;49.450;6.640;2023-05-27T06:16:45;9.40;;;2.10;;
40588;SDS011;26297;49.450;6.640;2023-05-27T06:19:48;5.18;;;2.15;;
40588;SDS011;26297;49.450;6.640;2023-05-27T06:22:51;7.13;;;1.95;;
40588;SDS011;26297;49.450;6.640;2023-05-27T06:25:54;5.53;;;2.00;;
40588;SDS011;26297;49.450;6.640;2023-05-27T06:28:57;3.88;;;1.48;;
40588;SDS011;26297;49.450;6.640;2023-05-27T06:32:00;5.30;;;1.70;;
40588;SDS011;26297;49.450;6.640;2023-05-27T06:35:04;3.38;;;1.52;;
40588;SDS011;26297;49.450;6.640;2023-05-27T06:38:07;4.07;;;1.83;;
40588;SDS011;26297;49.450;6.640;2023-05-27T06:41:10;7.07;;;1.85;;
40588;SDS011;26297;49.450;6.640;2023-05-27T06:44:13;5.97;;;1.83;;
40588;SDS011;26297;49.450;6.640;2023-05-27T06:47:17;7.88;;;1.98;;
40588;SDS011;26297;49.450;6.640;2023-05-27T06:50:20;4.45;;;1.90;;
40588;SDS011;26297;49.450;6.640;2023-05-27T06:53:23;8.75;;;1.80;;
40588;SDS011;26297;49.450;6.640;2023-05-27T06:56:27;3.83;;;1.45;;
40588;SDS011;26297;49.450;6.640;2023-05-27T06:59:30;7.18;;;1.88;;
40588;SDS011;26297;49.450;6.640;2023-05-27T07:02:33;6.07;;;2.10;;
40588;SDS011;26297;49.450;6.640;2023-05-27T07:05:36;7.15;;;1.75;;
40588;SDS011;26297;49.450;6.640;2023-05-27T07:08:39;5.13;;;1.63;;
40588;SDS011;26297;49.450;6.640;2023-05-27T07:11:42;7.03;;;1.98;;
40588;SDS011;26297;49.450;6.640;2023-05-27T07:14:45;6.30;;;2.35;;
40588;SDS011;26297;49.450;6.640;2023-05-27T07:17:48;4.95;;;1.90;;
40588;SDS011;26297;49.450;6.640;2023-05-27T07:20:54;7.20;;;2.00;;
40588;SDS011;26297;49.450;6.640;2023-05-27T07:23:57;3.38;;;1.83;;
40588;SDS011;26297;49.450;6.640;2023-05-27T07:27:05;3.85;;;1.33;;
40588;SDS011;26297;49.450;6.640;2023-05-27T07:30:10;5.00;;;1.77;;
40588;SDS011;26297;49.450;6.640;2023-05-27T07:33:13;3.25;;;1.50;;
40588;SDS011;26297;49.450;6.640;2023-05-27T07:36:16;6.97;;;1.80;;
40588;SDS011;26297;49.450;6.640;2023-05-27T07:39:19;5.40;;;1.52;;
40588;SDS011;26297;49.450;6.640;2023-05-27T07:42:22;6.22;;;2.05;;
40588;SDS011;26297;49.450;6.640;2023-05-27T07:45:25;8.75;;;1.77;;
40588;SDS011;26297;49.450;6.640;2023-05-27T07:48:28;3.95;;;1.63;;
40588;SDS011;26297;49.450;6.640;2023-05-27T07:51:32;5.90;;;2.05;;
40588;SDS011;26297;49.450;6.640;2023-05-27T07:54:35;2.65;;;1.38;;
40588;SDS011;26297;49.450;6.640;2023-05-27T07:57:38;3.58;;;1.58;;
40588;SDS011;26297;49.450;6.640;2023-05-27T08:00:41;4.15;;;1.52;;
40588;SDS011;26297;49.450;6.640;2023-05-27T08:03:45;6.05;;;2.50;;
40588;SDS011;26297;49.450;6.640;2023-05-27T08:06:48;4.65;;;1.88;;
40588;SDS011;26297;49.450;6.640;2023-05-27T08:09:51;5.78;;;1.67;;
40588;SDS011;26297;49.450;6.640;2023-05-27T08:12:54;8.48;;;2.95;;
40588;SDS011;26297;49.450;6.640;2023-05-27T08:15:58;6.45;;;2.03;;
40588;SDS011;26297;49.450;6.640;2023-05-27T08:19:02;6.57;;;1.80;;
40588;SDS011;26297;49.450;6.640;2023-05-27T08:22:04;4.47;;;1.75;;
40588;SDS011;26297;49.450;6.640;2023-05-27T08:25:10;5.40;;;2.03;;
40588;SDS011;26297;49.450;6.640;2023-05-27T08:28:13;4.40;;;1.45;;
40588;SDS011;26297;49.450;6.640;2023-05-27T08:31:20;6.18;;;1.88;;
40588;SDS011;26297;49.450;6.640;2023-05-27T08:34:28;7.68;;;2.20;;
40588;SDS011;26297;49.450;6.640;2023-05-27T08:38:23;5.05;;;1.50;;
40588;SDS011;26297;49.450;6.640;2023-05-27T08:41:35;3.60;;;1.50;;
40588;SDS011;26297;49.450;6.640;2023-05-27T08:44:49;6.18;;;1.50;;
40588;SDS011;26297;49.450;6.640;2023-05-27T08:47:57;3.60;;;1.60;;
40588;SDS011;26297;49.450;6.640;2023-05-27T08:51:08;3.80;;;1.35;;
40588;SDS011;26297;49.450;6.640;2023-05-27T08:54:13;2.03;;;1.30;;
40588;SDS011;26297;49.450;6.640;2023-05-27T08:57:19;9.93;;;2.30;;
40588;SDS011;26297;49.450;6.640;2023-05-27T09:00:30;7.75;;;2.83;;
40588;SDS011;26297;49.450;6.640;2023-05-27T09:04:02;7.90;;;2.30;;
40588;SDS011;26297;49.450;6.640;2023-05-27T09:07:21;4.15;;;1.90;;
40588;SDS011;26297;49.450;6.640;2023-05-27T09:10:34;4.20;;;1.80;;
40588;SDS011;26297;49.450;6.640;2023-05-27T09:13:42;6.70;;;2.30;;
40588;SDS011;26297;49.450;6.640;2023-05-27T09:17:41;4.60;;;1.73;;
40588;SDS011;26297;49.450;6.640;2023-05-27T09:20:48;6.25;;;1.75;;
40588;SDS011;26297;49.450;6.640;2023-05-27T09:27:33;4.57;;;1.85;;
40588;SDS011;26297;49.450;6.640;2023-05-27T09:31:01;4.35;;;1.88;;
40588;SDS011;26297;49.450;6.640;2023-05-27T09:34:19;3.58;;;1.75;;
40588;SDS011;26297;49.450;6.640;2023-05-27T09:37:31;4.03;;;1.77;;
40588;SDS011;26297;49.450;6.640;2023-05-27T09:40:38;6.25;;;2.17;;
40588;SDS011;26297;49.450;6.640;2023-05-27T09:44:01;7.60;;;1.92;;
40588;SDS011;26297;49.450;6.640;2023-05-27T09:47:14;4.90;;;1.75;;
40588;SDS011;26297;49.450;6.640;2023-05-27T09:50:29;5.57;;;2.10;;
40588;SDS011;26297;49.450;6.640;2023-05-27T09:53:37;4.13;;;1.45;;
40588;SDS011;26297;49.450;6.640;2023-05-27T09:56:43;7.07;;;2.20;;
40588;SDS011;26297;49.450;6.640;2023-05-27T09:59:56;6.45;;;1.80;;
40588;SDS011;26297;49.450;6.640;2023-05-27T10:03:02;6.57;;;1.92;;
40588;SDS011;26297;49.450;6.640;2023-05-27T10:06:08;6.13;;;2.25;;
40588;SDS011;26297;49.450;6.640;2023-05-27T10:09:15;3.38;;;1.92;;
40588;SDS011;26297;49.450;6.640;2023-05-27T10:12:21;3.50;;;1.35;;
40588;SDS011;26297;49.450;6.640;2023-05-27T10:15:29;3.50;;;1.67;;
40588;SDS011;26297;49.450;6.640;2023-05-27T10:18:41;3.65;;;1.77;;
40588;SDS011;26297;49.450;6.640;2023-05-27T10:21:48;3.08;;;2.08;;
40588;SDS011;26297;49.450;6.640;2023-05-27T10:24:54;9.20;;;2.03;;
40588;SDS011;26297;49.450;6.640;2023-05-27T10:28:08;5.80;;;2.08;;
40588;SDS011;26297;49.450;6.640;2023-05-27T10:31:18;5.65;;;1.38;;
40588;SDS011;26297;49.450;6.640;2023-05-27T10:34:21;6.15;;;1.77;;
40588;SDS011;26297;49.450;6.640;2023-05-27T10:37:27;6.45;;;2.42;;
40588;SDS011;26297;49.450;6.640;2023-05-27T10:40:59;5.13;;;2.20;;
40588;SDS011;26297;49.450;6.640;2023-05-27T10:44:04;2.65;;;1.08;;
40588;SDS011;26297;49.450;6.640;2023-05-27T10:47:16;3.60;;;2.33;;
40588;SDS011;26297;49.450;6.640;2023-05-27T10:50:29;3.25;;;1.35;;
40588;SDS011;26297;49.450;6.640;2023-05-27T10:53:42;5.57;;;1.67;;
40588;SDS011;26297;49.450;6.640;2023-05-27T10:56:48;4.40;;;2.13;;
40588;SDS011;26297;49.450;6.640;2023-05-27T11:00:04;3.65;;;1.98;;
40588;SDS011;26297;49.450;6.640;2023-05-27T11:06:31;6.78;;;2.15;;
40588;SDS011;26297;49.450;6.640;2023-05-27T11:13:02;3.30;;;2.05;;
40588;SDS011;26297;49.450;6.640;2023-05-27T11:16:09;6.68;;;2.45;;
40588;SDS011;26297;49.450;6.640;2023-05-27T11:19:13;3.45;;;1.73;;
40588;SDS011;26297;49.450;6.640;2023-05-27T11:22:17;3.28;;;2.30;;
40588;SDS011;26297;49.450;6.640;2023-05-27T11:25:24;4.75;;;1.83;;
40588;SDS011;26297;49.450;6.640;2023-05-27T11:28:29;6.40;;;1.88;;
40588;SDS011;26297;49.450;6.640;2023-05-27T11:31:41;3.85;;;1.63;;
40588;SDS011;26297;49.450;6.640;2023-05-27T11:34:51;5.53;;;2.53;;
40588;SDS011;26297;49.450;6.640;2023-05-27T11:38:49;4.40;;;1.88;;
40588;SDS011;26297;49.450;6.640;2023-05-27T11:42:32;4.38;;;2.28;;
40588;SDS011;26297;49.450;6.640;2023-05-27T11:46:02;4.22;;;1.67;;
40588;SDS011;26297;49.450;6.640;2023-05-27T11:49:06;4.70;;;2.25;;
40588;SDS011;26297;49.450;6.640;2023-05-27T11:52:11;4.80;;;2.10;;
40588;SDS011;26297;49.450;6.640;2023-05-27T11:55:14;6.75;;;2.90;;
40588;SDS011;26297;49.450;6.640;2023-05-27T11:58:17;6.68;;;2.40;;
40588;SDS011;26297;49.450;6.640;2023-05-27T12:01:20;7.05;;;2.00;;
40588;SDS011;26297;49.450;6.640;2023-05-27T12:04:23;6.15;;;2.42;;
40588;SDS011;26297;49.450;6.640;2023-05-27T12:07:27;4.00;;;1.85;;
40588;SDS011;26297;49.450;6.640;2023-05-27T12:10:30;5.57;;;2.78;;
40588;SDS011;26297;49.450;6.640;2023-05-27T12:13:33;3.15;;;2.13;;
40588;SDS011;26297;49.450;6.640;2023-05-27T12:16:36;3.10;;;1.38;;
40588;SDS011;26297;49.450;6.640;2023-05-27T12:19:39;3.35;;;2.35;;
40588;SDS011;26297;49.450;6.640;2023-05-27T12:22:43;4.07;;;2.35;;
40588;SDS011;26297;49.450;6.640;2023-05-27T12:25:46;4.15;;;2.90;;
40588;SDS011;26297;49.450;6.640;2023-05-27T12:28:49;5.10;;;2.40;;
40588;SDS011;26297;49.450;6.640;2023-05-27T12:31:53;3.78;;;1.60;;
40588;SDS011;26297;49.450;6.640;2023-05-27T12:34:56;5.38;;;2.72;;
40588;SDS011;26297;49.450;6.640;2023-05-27T12:37:59;7.30;;;3.58;;
40588;SDS011;26297;49.450;6.640;2023-05-27T12:41:02;4.65;;;3.63;;
40588;SDS011;26297;49.450;6.640;2023-05-27T12:44:06;5.93;;;2.60;;
40588;SDS011;26297;49.450;6.640;2023-05-27T12:47:09;5.00;;;3.28;;
40588;SDS011;26297;49.450;6.640;2023-05-27T12:50:12;4.03;;;2.65;;
40588;SDS011;26297;49.450;6.640;2023-05-27T12:53:16;3.72;;;2.50;;
40588;SDS011;26297;49.450;6.640;2023-05-27T12:56:19;5.50;;;2.83;;
40588;SDS011;26297;49.450;6.640;2023-05-27T12:59:24;6.50;;;3.35;;
40588;SDS011;26297;49.450;6.640;2023-05-27T13:02:32;2.40;;;2.05;;
40588;SDS011;26297;49.450;6.640;2023-05-27T13:05:35;5.57;;;3.05;;
40588;SDS011;26297;49.450;6.640;2023-05-27T13:08:39;5.45;;;3.42;;
40588;SDS011;26297;49.450;6.640;2023-05-27T13:11:42;5.63;;;2.88;;
40588;SDS011;26297;49.450;6.640;2023-05-27T13:14:52;3.33;;;2.80;;
40588;SDS011;26297;49.450;6.640;2023-05-27T13:18:31;8.75;;;3.47;;
40588;SDS011;26297;49.450;6.640;2023-05-27T13:21:38;3.53;;;2.65;;
40588;SDS011;26297;49.450;6.640;2023-05-27T13:36:45;5.63;;;2.88;;
40588;SDS011;26297;49.450;6.640;2023-05-27T13:39:48;3.15;;;1.73;;
40588;SDS011;26297;49.450;6.640;2023-05-27T13:43:02;3.03;;;2.47;;
40588;SDS011;26297;49.450;6.640;2023-05-27T13:46:42;4.88;;;3.17;;
40588;SDS011;26297;49.450;6.640;2023-05-27T13:49:45;8.05;;;2.70;;
40588;SDS011;26297;49.450;6.640;2023-05-27T13:52:48;6.43;;;2.63;;
40588;SDS011;26297;49.450;6.640;2023-05-27T13:55:52;7.63;;;3.30;;
40588;SDS011;26297;49.450;6.640;2023-05-27T13:58:56;3.72;;;2.75;;
40588;SDS011;26297;49.450;6.640;2023-05-27T14:02:02;4.78;;;2.75;;
40588;SDS011;26297;49.450;6.640;2023-05-27T14:05:12;4.82;;;3.08;;
40588;SDS011;26297;49.450;6.640;2023-05-27T14:08:21;5.00;;;2.70;;
40588;SDS011;26297;49.450;6.640;2023-05-27T14:11:27;5.45;;;3.10;;
40588;SDS011;26297;49.450;6.640;2023-05-27T14:14:30;3.75;;;2.92;;
40588;SDS011;26297;49.450;6.640;2023-05-27T14:17:33;6.38;;;3.53;;
40588;SDS011;26297;49.450;6.640;2023-05-27T14:20:36;4.63;;;2.95;;
40588;SDS011;26297;49.450;6.640;2023-05-27T14:23:40;6.63;;;3.80;;
40588;SDS011;26297;49.450;6.640;2023-05-27T14:26:43;6.50;;;2.65;;
40588;SDS011;26297;49.450;6.640;2023-05-27T14:29:47;6.60;;;3.83;;
40588;SDS011;26297;49.450;6.640;2023-05-27T14:32:52;4.25;;;2.85;;
40588;SDS011;26297;49.450;6.640;2023-05-27T14:36:17;4.90;;;3.03;;
40588;SDS011;26297;49.450;6.640;2023-05-27T14:39:25;4.88;;;2.60;;
40588;SDS011;26297;49.450;6.640;2023-05-27T14:42:28;3.45;;;2.67;;
40588;SDS011;26297;49.450;6.640;2023-05-27T14:52:25;3.47;;;2.50;;
40588;SDS011;26297;49.450;6.640;2023-05-27T14:55:28;4.88;;;2.97;;
40588;SDS011;26297;49.450;6.640;2023-05-27T14:58:32;4.72;;;2.72;;
40588;SDS011;26297;49.450;6.640;2023-05-27T15:01:35;5.53;;;3.08;;
40588;SDS011;26297;49.450;6.640;2023-05-27T15:04:52;6.60;;;3.67;;
40588;SDS011;26297;49.450;6.640;2023-05-27T15:08:15;7.22;;;3.08;;
40588;SDS011;26297;49.450;6.640;2023-05-27T15:11:26;6.22;;;3.08;;
40588;SDS011;26297;49.450;6.640;2023-05-27T15:14:33;4.88;;;3.60;;
40588;SDS011;26297;49.450;6.640;2023-05-27T15:17:41;5.65;;;3.25;;
40588;SDS011;26297;49.450;6.640;2023-05-27T15:20:48;4.38;;;2.85;;
40588;SDS011;26297;49.450;6.640;2023-05-27T15:23:57;3.80;;;2.40;;
40588;SDS011;26297;49.450;6.640;2023-05-27T15:27:00;5.25;;;2.28;;
40588;SDS011;26297;49.450;6.640;2023-05-27T15:30:07;6.15;;;3.85;;
40588;SDS011;26297;49.450;6.640;2023-05-27T15:33:11;3.85;;;2.83;;
40588;SDS011;26297;49.450;6.640;2023-05-27T15:36:14;6.15;;;2.85;;
40588;SDS011;26297;49.450;6.640;2023-05-27T15:39:17;3.78;;;2.78;;
40588;SDS011;26297;49.450;6.640;2023-05-27T15:42:21;7.45;;;3.50;;
40588;SDS011;26297;49.450;6.640;2023-05-27T15:45:25;6.38;;;3.22;;
40588;SDS011;26297;49.450;6.640;2023-05-27T15:48:28;7.93;;;3.50;;
40588;SDS011;26297;49.450;6.640;2023-05-27T15:51:31;3.63;;;2.90;;
40588;SDS011;26297;49.450;6.640;2023-05-27T15:54:34;7.63;;;3.97;;
40588;SDS011;26297;49.450;6.640;2023-05-27T15:57:38;4.18;;;3.20;;
40588;SDS011;26297;49.450;6.640;2023-05-27T16:00:41;4.53;;;3.20;;
40588;SDS011;26297;49.450;6.640;2023-05-27T16:03:45;12.43;;;4.00;;
40588;SDS011;26297;49.450;6.640;2023-05-27T16:06:47;7.40;;;3.13;;
40588;SDS011;26297;49.450;6.640;2023-05-27T16:09:51;5.95;;;3.33;;
40588;SDS011;26297;49.450;6.640;2023-05-27T16:12:54;5.68;;;3.58;;
40588;SDS011;26297;49.450;6.640;2023-05-27T16:15:59;4.05;;;3.05;;
40588;SDS011;26297;49.450;6.640;2023-05-27T16:19:02;6.28;;;3.50;;
40588;SDS011;26297;49.450;6.640;2023-05-27T16:22:05;4.85;;;2.97;;
40588;SDS011;26297;49.450;6.640;2023-05-27T16:25:08;4.13;;;3.22;;
40588;SDS011;26297;49.450;6.640;2023-05-27T16:28:14;7.97;;;3.70;;
40588;SDS011;26297;49.450;6.640;2023-05-27T16:31:17;6.07;;;2.92;;
40588;SDS011;26297;49.450;6.640;2023-05-27T16:34:23;6.68;;;2.80;;
40588;SDS011;26297;49.450;6.640;2023-05-27T16:37:26;4.50;;;2.90;;
40588;SDS011;26297;49.450;6.640;2023-05-27T16:40:29;5.43;;;2.53;;
40588;SDS011;26297;49.450;6.640;2023-05-27T16:43:33;7.00;;;2.72;;
40588;SDS011;26297;49.450;6.640;2023-05-27T16:46:36;6.28;;;2.67;;
40588;SDS011;26297;49.450;6.640;2023-05-27T16:49:40;6.07;;;3.13;;
40588;SDS011;26297;49.450;6.640;2023-05-27T16:52:43;6.32;;;2.58;;
40588;SDS011;26297;49.450;6.640;2023-05-27T16:55:46;7.88;;;2.80;;
40588;SDS011;26297;49.450;6.640;2023-05-27T16:58:50;4.60;;;2.90;;
40588;SDS011;26297;49.450;6.640;2023-05-27T17:01:57;5.75;;;2.92;;
40588;SDS011;26297;49.450;6.640;2023-05-27T17:05:00;6.03;;;3.03;;
40588;SDS011;26297;49.450;6.640;2023-05-27T17:08:04;3.13;;;2.60;;
40588;SDS011;26297;49.450;6.640;2023-05-27T17:11:09;5.47;;;2.53;;
40588;SDS011;26297;49.450;6.640;2023-05-27T17:14:13;5.57;;;2.50;;
40588;SDS011;26297;49.450;6.640;2023-05-27T17:17:16;6.05;;;2.47;;
40588;SDS011;26297;49.450;6.640;2023-05-27T17:20:39;3.65;;;2.33;;
40588;SDS011;26297;49.450;6.640;2023-05-27T17:23:42;3.70;;;2.15;;
40588;SDS011;26297;49.450;6.640;2023-05-27T17:26:46;4.60;;;2.38;;
40588;SDS011;26297;49.450;6.640;2023-05-27T17:29:49;3.47;;;2.08;;
40588;SDS011;26297;49.450;6.640;2023-05-27T17:32:52;4.38;;;2.15;;
40588;SDS011;26297;49.450;6.640;2023-05-27T17:35:56;8.02;;;2.55;;
40588;SDS011;26297;49.450;6.640;2023-05-27T17:38:59;3.35;;;2.38;;
40588;SDS011;26297;49.450;6.640;2023-05-27T17:42:02;4.57;;;2.13;;
40588;SDS011;26297;49.450;6.640;2023-05-27T17:45:05;6.40;;;2.58;;
40588;SDS011;26297;49.450;6.640;2023-05-27T17:48:09;3.53;;;2.25;;
40588;SDS011;26297;49.450;6.640;2023-05-27T17:51:14;9.18;;;2.72;;
40588;SDS011;26297;49.450;6.640;2023-05-27T17:54:17;3.17;;;2.00;;
40588;SDS011;26297;49.450;6.640;2023-05-27T17:57:20;3.65;;;2.35;;
40588;SDS011;26297;49.450;6.640;2023-05-27T18:00:23;3.95;;;2.38;;
40588;SDS011;26297;49.450;6.640;2023-05-27T18:03:29;4.00;;;2.45;;
40588;SDS011;26297;49.450;6.640;2023-05-27T18:06:34;4.22;;;2.28;;
40588;SDS011;26297;49.450;6.640;2023-05-27T18:09:39;4.18;;;2.40;;
40588;SDS011;26297;49.450;6.640;2023-05-27T18:12:42;3.95;;;2.17;;
40588;SDS011;26297;49.450;6.640;2023-05-27T18:15:45;5.55;;;2.40;;
40588;SDS011;26297;49.450;6.640;2023-05-27T18:18:48;3.70;;;2.08;;
40588;SDS011;26297;49.450;6.640;2023-05-27T18:21:52;4.05;;;2.03;;
40588;SDS011;26297;49.450;6.640;2023-05-27T18:25:01;3.85;;;2.00;;
40588;SDS011;26297;49.450;6.640;2023-05-27T18:28:06;3.97;;;2.20;;
40588;SDS011;26297;49.450;6.640;2023-05-27T18:31:09;4.00;;;1.90;;
40588;SDS011;26297;49.450;6.640;2023-05-27T18:34:13;3.60;;;2.28;;
40588;SDS011;26297;49.450;6.640;2023-05-27T18:37:17;4.65;;;2.30;;
40588;SDS011;26297;49.450;6.640;2023-05-27T18:40:20;2.65;;;1.58;;
40588;SDS011;26297;49.450;6.640;2023-05-27T18:43:28;4.60;;;2.33;;
40588;SDS011;26297;49.450;6.640;2023-05-27T18:46:32;4.05;;;1.80;;
40588;SDS011;26297;49.450;6.640;2023-05-27T18:49:36;6.20;;;2.20;;
40588;SDS011;26297;49.450;6.640;2023-05-27T18:52:39;5.80;;;2.03;;
40588;SDS011;26297;49.450;6.640;2023-05-27T18:55:48;3.37;;;1.80;;
40588;SDS011;26297;49.450;6.640;2023-05-27T18:58:51;4.82;;;1.88;;
40588;SDS011;26297;49.450;6.640;2023-05-27T19:01:54;4.45;;;2.03;;
40588;SDS011;26297;49.450;6.640;2023-05-27T19:04:57;4.47;;;1.98;;
40588;SDS011;26297;49.450;6.640;2023-05-27T19:08:06;4.03;;;2.25;;
40588;SDS011;26297;49.450;6.640;2023-05-27T19:11:09;2.85;;;1.80;;
40588;SDS011;26297;49.450;6.640;2023-05-27T19:14:12;3.63;;;1.88;;
40588;SDS011;26297;49.450;6.640;2023-05-27T19:17:16;2.88;;;1.80;;
40588;SDS011;26297;49.450;6.640;2023-05-27T19:20:19;3.88;;;2.00;;
40588;SDS011;26297;49.450;6.640;2023-05-27T19:23:23;5.90;;;1.83;;
40588;SDS011;26297;49.450;6.640;2023-05-27T19:26:32;4.70;;;1.77;;
40588;SDS011;26297;49.450;6.640;2023-05-27T19:29:35;2.92;;;1.88;;
40588;SDS011;26297;49.450;6.640;2023-05-27T19:32:39;4.82;;;1.88;;
40588;SDS011;26297;49.450;6.640;2023-05-27T19:35:42;2.55;;;1.63;;
40588;SDS011;26297;49.450;6.640;2023-05-27T19:38:45;3.05;;;1.67;;
40588;SDS011;26297;49.450;6.640;2023-05-27T19:41:48;4.25;;;1.85;;
40588;SDS011;26297;49.450;6.640;2023-05-27T19:44:51;3.40;;;1.95;;
40588;SDS011;26297;49.450;6.640;2023-05-27T19:47:58;4.40;;;2.08;;
40588;SDS011;26297;49.450;6.640;2023-05-27T19:51:01;3.05;;;2.05;;
40588;SDS011;26297;49.450;6.640;2023-05-27T19:54:05;3.78;;;2.15;;
40588;SDS011;26297;49.450;6.640;2023-05-27T19:57:08;6.20;;;2.15;;
40588;SDS011;26297;49.450;6.640;2023-05-27T22:24:18;3.42;;;2.15;;
40588;SDS011;26297;49.450;6.640;2023-05-27T23:55:09;5.63;;;2.47;;
40588;SDS011;26297;49.450;6.640;2023-05-27T23:58:17;4.50;;;2.40;;
